sensor_id;sensor_type;location;lat;lon;timestamp;P1;durP1;ratioP1;P2;durP2;ratioP2
4391;SDS011;2210;51.938;8.488;2023-11-21T00:02:31;7.27;;;5.13;;
4391;SDS011;2210;51.938;8.488;2023-11-21T00:06:32;9.40;;;5.40;;
4391;SDS011;2210;51.938;8.488;2023-11-21T00:10:33;6.70;;;5.43;;
4391;SDS011;2210;51.938;8.488;2023-11-21T00:14:33;5.67;;;4.73;;
4391;SDS011;2210;51.938;8.488;2023-11-21T00:18:34;5.00;;;4.43;;
4391;SDS011;2210;51.938;8.488;2023-11-21T00:22:34;7.87;;;5.23;;
4391;SDS011;2210;51.938;8.488;2023-11-21T00:26:35;6.63;;;5.13;;
4391;SDS011;2210;51.938;8.488;2023-11-21T00:30:37;5.37;;;4.80;;
4391;SDS011;2210;51.938;8.488;2023-11-21T00:34:38;7.20;;;5.90;;
4391;SDS011;2210;51.938;8.488;2023-11-21T00:38:38;5.67;;;5.17;;
4391;SDS011;2210;51.938;8.488;2023-11-21T00:42:43;7.67;;;5.93;;
4391;SDS011;2210;51.938;8.488;2023-11-21T00:46:43;5.37;;;4.87;;
4391;SDS011;2210;51.938;8.488;2023-11-21T00:50:47;11.43;;;5.70;;
4391;SDS011;2210;51.938;8.488;2023-11-21T00:54:47;8.10;;;5.13;;
4391;SDS011;2210;51.938;8.488;2023-11-21T00:58:51;7.00;;;5.23;;
4391;SDS011;2210;51.938;8.488;2023-11-21T01:02:55;8.73;;;6.20;;
4391;SDS011;2210;51.938;8.488;2023-11-21T01:06:56;8.23;;;5.80;;
4391;SDS011;2210;51.938;8.488;2023-11-21T01:10:59;9.43;;;5.97;;
4391;SDS011;2210;51.938;8.488;2023-11-21T01:15:05;9.03;;;6.60;;
4391;SDS011;2210;51.938;8.488;2023-11-21T01:19:11;8.10;;;6.60;;
4391;SDS011;2210;51.938;8.488;2023-11-21T01:23:15;6.30;;;5.70;;
4391;SDS011;2210;51.938;8.488;2023-11-21T01:27:15;9.23;;;6.10;;
4391;SDS011;2210;51.938;8.488;2023-11-21T01:31:15;13.40;;;6.23;;
4391;SDS011;2210;51.938;8.488;2023-11-21T01:35:19;12.00;;;6.20;;
4391;SDS011;2210;51.938;8.488;2023-11-21T01:39:19;9.20;;;5.40;;
4391;SDS011;2210;51.938;8.488;2023-11-21T01:43:26;7.30;;;6.00;;
4391;SDS011;2210;51.938;8.488;2023-11-21T01:47:31;7.63;;;5.90;;
4391;SDS011;2210;51.938;8.488;2023-11-21T01:51:33;9.97;;;6.47;;
4391;SDS011;2210;51.938;8.488;2023-11-21T01:55:37;6.80;;;5.90;;
4391;SDS011;2210;51.938;8.488;2023-11-21T01:59:41;8.90;;;5.83;;
4391;SDS011;2210;51.938;8.488;2023-11-21T02:03:49;6.97;;;6.27;;
4391;SDS011;2210;51.938;8.488;2023-11-21T02:07:55;10.00;;;6.20;;
4391;SDS011;2210;51.938;8.488;2023-11-21T02:12:02;6.10;;;5.50;;
4391;SDS011;2210;51.938;8.488;2023-11-21T02:16:03;8.00;;;6.93;;
4391;SDS011;2210;51.938;8.488;2023-11-21T02:20:11;9.70;;;6.60;;
4391;SDS011;2210;51.938;8.488;2023-11-21T02:24:15;11.80;;;6.17;;
4391;SDS011;2210;51.938;8.488;2023-11-21T02:28:17;9.83;;;7.10;;
4391;SDS011;2210;51.938;8.488;2023-11-21T02:32:25;9.40;;;6.50;;
4391;SDS011;2210;51.938;8.488;2023-11-21T02:36:29;7.07;;;5.60;;
4391;SDS011;2210;51.938;8.488;2023-11-21T02:40:32;7.83;;;6.90;;
4391;SDS011;2210;51.938;8.488;2023-11-21T02:44:33;7.47;;;6.43;;
4391;SDS011;2210;51.938;8.488;2023-11-21T02:48:33;8.20;;;6.67;;
4391;SDS011;2210;51.938;8.488;2023-11-21T02:52:34;7.77;;;6.97;;
4391;SDS011;2210;51.938;8.488;2023-11-21T02:56:41;7.10;;;6.40;;
4391;SDS011;2210;51.938;8.488;2023-11-21T03:00:44;8.93;;;6.90;;
4391;SDS011;2210;51.938;8.488;2023-11-21T03:04:48;7.87;;;5.87;;
4391;SDS011;2210;51.938;8.488;2023-11-21T03:08:52;9.17;;;6.40;;
4391;SDS011;2210;51.938;8.488;2023-11-21T03:12:52;6.67;;;5.97;;
4391;SDS011;2210;51.938;8.488;2023-11-21T03:16:52;8.70;;;5.53;;
4391;SDS011;2210;51.938;8.488;2023-11-21T03:20:53;9.70;;;6.03;;
4391;SDS011;2210;51.938;8.488;2023-11-21T03:24:59;11.67;;;7.20;;
4391;SDS011;2210;51.938;8.488;2023-11-21T03:29:03;10.50;;;7.20;;
4391;SDS011;2210;51.938;8.488;2023-11-21T03:33:04;11.33;;;8.83;;
4391;SDS011;2210;51.938;8.488;2023-11-21T03:37:07;11.40;;;8.30;;
4391;SDS011;2210;51.938;8.488;2023-11-21T03:41:10;9.60;;;7.63;;
4391;SDS011;2210;51.938;8.488;2023-11-21T03:45:11;7.53;;;6.27;;
4391;SDS011;2210;51.938;8.488;2023-11-21T03:49:12;12.30;;;6.80;;
4391;SDS011;2210;51.938;8.488;2023-11-21T03:53:12;9.70;;;7.37;;
4391;SDS011;2210;51.938;8.488;2023-11-21T03:57:12;6.87;;;5.87;;
4391;SDS011;2210;51.938;8.488;2023-11-21T04:01:18;11.50;;;6.77;;
4391;SDS011;2210;51.938;8.488;2023-11-21T04:05:21;9.73;;;6.50;;
4391;SDS011;2210;51.938;8.488;2023-11-21T04:09:23;8.10;;;6.33;;
4391;SDS011;2210;51.938;8.488;2023-11-21T04:13:25;8.50;;;5.97;;
4391;SDS011;2210;51.938;8.488;2023-11-21T04:17:25;7.30;;;6.27;;
4391;SDS011;2210;51.938;8.488;2023-11-21T04:21:28;7.00;;;6.30;;
4391;SDS011;2210;51.938;8.488;2023-11-21T04:25:28;8.63;;;7.23;;
4391;SDS011;2210;51.938;8.488;2023-11-21T04:29:29;8.20;;;7.37;;
4391;SDS011;2210;51.938;8.488;2023-11-21T04:33:30;9.40;;;8.33;;
4391;SDS011;2210;51.938;8.488;2023-11-21T04:37:31;8.40;;;7.20;;
4391;SDS011;2210;51.938;8.488;2023-11-21T04:41:31;9.63;;;7.37;;
4391;SDS011;2210;51.938;8.488;2023-11-21T04:45:32;8.10;;;7.30;;
4391;SDS011;2210;51.938;8.488;2023-11-21T04:49:32;11.23;;;7.60;;
4391;SDS011;2210;51.938;8.488;2023-11-21T04:53:33;10.87;;;7.73;;
4391;SDS011;2210;51.938;8.488;2023-11-21T04:57:41;9.37;;;7.77;;
4391;SDS011;2210;51.938;8.488;2023-11-21T05:01:44;8.90;;;7.67;;
4391;SDS011;2210;51.938;8.488;2023-11-21T05:05:47;10.70;;;7.93;;
4391;SDS011;2210;51.938;8.488;2023-11-21T05:09:47;10.97;;;8.87;;
4391;SDS011;2210;51.938;8.488;2023-11-21T05:13:51;10.17;;;8.13;;
4391;SDS011;2210;51.938;8.488;2023-11-21T05:17:54;16.80;;;8.70;;
4391;SDS011;2210;51.938;8.488;2023-11-21T05:21:55;10.87;;;8.00;;
4391;SDS011;2210;51.938;8.488;2023-11-21T05:25:55;9.00;;;7.77;;
4391;SDS011;2210;51.938;8.488;2023-11-21T05:29:56;11.97;;;8.17;;
4391;SDS011;2210;51.938;8.488;2023-11-21T05:33:57;10.63;;;9.10;;
4391;SDS011;2210;51.938;8.488;2023-11-21T05:37:57;9.90;;;8.33;;
4391;SDS011;2210;51.938;8.488;2023-11-21T05:41:57;8.93;;;8.03;;
4391;SDS011;2210;51.938;8.488;2023-11-21T05:45:58;10.67;;;8.83;;
4391;SDS011;2210;51.938;8.488;2023-11-21T05:49:59;12.03;;;8.57;;
4391;SDS011;2210;51.938;8.488;2023-11-21T05:53:59;11.07;;;8.60;;
4391;SDS011;2210;51.938;8.488;2023-11-21T05:57:59;10.07;;;8.90;;
4391;SDS011;2210;51.938;8.488;2023-11-21T06:02:02;15.90;;;9.90;;
4391;SDS011;2210;51.938;8.488;2023-11-21T06:06:03;13.00;;;9.83;;
4391;SDS011;2210;51.938;8.488;2023-11-21T06:10:04;12.23;;;8.90;;
4391;SDS011;2210;51.938;8.488;2023-11-21T06:14:15;11.90;;;9.07;;
4391;SDS011;2210;51.938;8.488;2023-11-21T06:18:17;11.17;;;9.10;;
4391;SDS011;2210;51.938;8.488;2023-11-21T06:22:22;9.50;;;8.40;;
4391;SDS011;2210;51.938;8.488;2023-11-21T06:26:22;17.90;;;9.73;;
4391;SDS011;2210;51.938;8.488;2023-11-21T06:30:30;10.73;;;8.60;;
4391;SDS011;2210;51.938;8.488;2023-11-21T06:34:30;12.70;;;8.57;;
4391;SDS011;2210;51.938;8.488;2023-11-21T06:38:31;12.90;;;9.40;;
4391;SDS011;2210;51.938;8.488;2023-11-21T06:42:32;11.80;;;8.83;;
4391;SDS011;2210;51.938;8.488;2023-11-21T06:46:33;12.73;;;9.13;;
4391;SDS011;2210;51.938;8.488;2023-11-21T06:50:33;9.47;;;7.47;;
4391;SDS011;2210;51.938;8.488;2023-11-21T06:54:34;20.70;;;9.30;;
4391;SDS011;2210;51.938;8.488;2023-11-21T06:58:34;15.50;;;9.93;;
4391;SDS011;2210;51.938;8.488;2023-11-21T07:02:35;11.20;;;9.53;;
4391;SDS011;2210;51.938;8.488;2023-11-21T07:06:35;13.90;;;10.40;;
4391;SDS011;2210;51.938;8.488;2023-11-21T07:10:36;11.07;;;8.77;;
4391;SDS011;2210;51.938;8.488;2023-11-21T07:14:37;10.70;;;9.50;;
4391;SDS011;2210;51.938;8.488;2023-11-21T07:18:42;11.23;;;8.93;;
4391;SDS011;2210;51.938;8.488;2023-11-21T07:22:45;15.50;;;11.93;;
4391;SDS011;2210;51.938;8.488;2023-11-21T07:26:46;17.53;;;9.87;;
4391;SDS011;2210;51.938;8.488;2023-11-21T07:30:46;17.40;;;10.60;;
4391;SDS011;2210;51.938;8.488;2023-11-21T07:34:46;18.73;;;10.93;;
4391;SDS011;2210;51.938;8.488;2023-11-21T07:38:46;13.77;;;10.20;;
4391;SDS011;2210;51.938;8.488;2023-11-21T07:42:48;11.00;;;9.73;;
4391;SDS011;2210;51.938;8.488;2023-11-21T07:46:53;15.80;;;10.50;;
4391;SDS011;2210;51.938;8.488;2023-11-21T07:51:00;17.70;;;10.80;;
4391;SDS011;2210;51.938;8.488;2023-11-21T07:55:06;15.20;;;11.30;;
4391;SDS011;2210;51.938;8.488;2023-11-21T07:59:10;14.57;;;11.53;;
4391;SDS011;2210;51.938;8.488;2023-11-21T08:03:11;16.50;;;12.17;;
4391;SDS011;2210;51.938;8.488;2023-11-21T08:07:15;17.73;;;11.03;;
4391;SDS011;2210;51.938;8.488;2023-11-21T08:15:42;15.20;;;10.10;;
4391;SDS011;2210;51.938;8.488;2023-11-21T08:19:46;17.77;;;11.70;;
4391;SDS011;2210;51.938;8.488;2023-11-21T08:23:50;14.63;;;10.17;;
4391;SDS011;2210;51.938;8.488;2023-11-21T08:27:54;17.63;;;11.20;;
4391;SDS011;2210;51.938;8.488;2023-11-21T08:31:54;18.47;;;10.70;;
4391;SDS011;2210;51.938;8.488;2023-11-21T08:35:54;13.20;;;9.97;;
4391;SDS011;2210;51.938;8.488;2023-11-21T08:39:55;13.63;;;10.37;;
4391;SDS011;2210;51.938;8.488;2023-11-21T08:44:03;14.37;;;9.97;;
4391;SDS011;2210;51.938;8.488;2023-11-21T08:48:10;14.90;;;9.47;;
4391;SDS011;2210;51.938;8.488;2023-11-21T08:52:14;11.07;;;8.90;;
4391;SDS011;2210;51.938;8.488;2023-11-21T08:56:24;11.27;;;8.77;;
4391;SDS011;2210;51.938;8.488;2023-11-21T09:00:28;13.33;;;9.03;;
4391;SDS011;2210;51.938;8.488;2023-11-21T09:04:40;12.97;;;9.77;;
4391;SDS011;2210;51.938;8.488;2023-11-21T09:14:13;13.73;;;9.60;;
4391;SDS011;2210;51.938;8.488;2023-11-21T09:18:52;12.67;;;7.93;;
4391;SDS011;2210;51.938;8.488;2023-11-21T09:23:12;13.77;;;8.30;;
4391;SDS011;2210;51.938;8.488;2023-11-21T09:27:13;12.97;;;9.33;;
4391;SDS011;2210;51.938;8.488;2023-11-21T09:40:33;10.87;;;8.20;;
4391;SDS011;2210;51.938;8.488;2023-11-21T09:45:27;11.67;;;8.50;;
4391;SDS011;2210;51.938;8.488;2023-11-21T09:49:29;13.40;;;8.07;;
4391;SDS011;2210;51.938;8.488;2023-11-21T09:53:34;11.90;;;7.00;;
4391;SDS011;2210;51.938;8.488;2023-11-21T09:57:42;9.20;;;6.30;;
4391;SDS011;2210;51.938;8.488;2023-11-21T10:01:42;6.90;;;4.97;;
4391;SDS011;2210;51.938;8.488;2023-11-21T10:05:43;9.63;;;6.37;;
4391;SDS011;2210;51.938;8.488;2023-11-21T10:09:51;8.13;;;6.30;;
4391;SDS011;2210;51.938;8.488;2023-11-21T10:13:54;6.57;;;4.80;;
4391;SDS011;2210;51.938;8.488;2023-11-21T10:18:07;7.00;;;4.80;;
4391;SDS011;2210;51.938;8.488;2023-11-21T10:26:51;5.03;;;4.27;;
4391;SDS011;2210;51.938;8.488;2023-11-21T10:30:53;6.37;;;5.40;;
4391;SDS011;2210;51.938;8.488;2023-11-21T10:34:56;4.20;;;3.70;;
4391;SDS011;2210;51.938;8.488;2023-11-21T10:38:58;5.53;;;3.90;;
4391;SDS011;2210;51.938;8.488;2023-11-21T10:43:08;4.40;;;3.80;;
4391;SDS011;2210;51.938;8.488;2023-11-21T10:47:10;3.07;;;2.67;;
4391;SDS011;2210;51.938;8.488;2023-11-21T10:51:11;3.13;;;2.83;;
4391;SDS011;2210;51.938;8.488;2023-11-21T10:55:18;2.77;;;2.50;;
4391;SDS011;2210;51.938;8.488;2023-11-21T10:59:21;3.00;;;2.37;;
4391;SDS011;2210;51.938;8.488;2023-11-21T11:03:31;3.50;;;3.20;;
4391;SDS011;2210;51.938;8.488;2023-11-21T11:07:35;2.73;;;2.43;;
4391;SDS011;2210;51.938;8.488;2023-11-21T11:11:36;2.30;;;2.10;;
4391;SDS011;2210;51.938;8.488;2023-11-21T11:20:18;2.60;;;2.40;;
4391;SDS011;2210;51.938;8.488;2023-11-21T11:24:40;2.47;;;2.27;;
4391;SDS011;2210;51.938;8.488;2023-11-21T11:29:03;3.10;;;2.60;;
4391;SDS011;2210;51.938;8.488;2023-11-21T11:33:21;3.20;;;2.90;;
4391;SDS011;2210;51.938;8.488;2023-11-21T11:37:42;2.47;;;2.20;;
4391;SDS011;2210;51.938;8.488;2023-11-21T11:41:43;2.60;;;2.40;;
4391;SDS011;2210;51.938;8.488;2023-11-21T11:45:47;2.23;;;2.07;;
4391;SDS011;2210;51.938;8.488;2023-11-21T11:50:00;4.17;;;2.60;;
4391;SDS011;2210;51.938;8.488;2023-11-21T11:58:42;3.20;;;2.90;;
4391;SDS011;2210;51.938;8.488;2023-11-21T12:03:07;3.93;;;3.20;;
4391;SDS011;2210;51.938;8.488;2023-11-21T12:07:07;4.00;;;3.20;;
4391;SDS011;2210;51.938;8.488;2023-11-21T12:11:07;3.67;;;3.37;;
4391;SDS011;2210;51.938;8.488;2023-11-21T12:15:08;4.93;;;3.70;;
4391;SDS011;2210;51.938;8.488;2023-11-21T12:19:12;20.70;;;3.93;;
4391;SDS011;2210;51.938;8.488;2023-11-21T12:23:12;3.63;;;3.33;;
4391;SDS011;2210;51.938;8.488;2023-11-21T12:27:16;4.80;;;4.00;;
4391;SDS011;2210;51.938;8.488;2023-11-21T12:31:16;4.73;;;4.20;;
4391;SDS011;2210;51.938;8.488;2023-11-21T12:35:21;5.40;;;4.50;;
4391;SDS011;2210;51.938;8.488;2023-11-21T12:39:23;5.33;;;3.50;;
4391;SDS011;2210;51.938;8.488;2023-11-21T12:43:27;5.43;;;4.30;;
4391;SDS011;2210;51.938;8.488;2023-11-21T12:47:28;7.23;;;4.93;;
4391;SDS011;2210;51.938;8.488;2023-11-21T12:51:28;4.90;;;4.37;;
4391;SDS011;2210;51.938;8.488;2023-11-21T12:55:35;5.57;;;4.23;;
4391;SDS011;2210;51.938;8.488;2023-11-21T12:59:44;5.03;;;4.53;;
4391;SDS011;2210;51.938;8.488;2023-11-21T13:03:48;5.10;;;4.30;;
4391;SDS011;2210;51.938;8.488;2023-11-21T13:07:50;5.47;;;4.77;;
4391;SDS011;2210;51.938;8.488;2023-11-21T13:11:59;4.80;;;4.30;;
4391;SDS011;2210;51.938;8.488;2023-11-21T13:16:09;6.60;;;4.90;;
4391;SDS011;2210;51.938;8.488;2023-11-21T13:20:10;3.60;;;3.30;;
4391;SDS011;2210;51.938;8.488;2023-11-21T13:24:17;5.77;;;4.13;;
4391;SDS011;2210;51.938;8.488;2023-11-21T13:28:20;6.30;;;4.20;;
4391;SDS011;2210;51.938;8.488;2023-11-21T13:32:24;4.83;;;3.67;;
4391;SDS011;2210;51.938;8.488;2023-11-21T13:36:28;5.23;;;4.13;;
4391;SDS011;2210;51.938;8.488;2023-11-21T13:40:36;6.80;;;3.57;;
4391;SDS011;2210;51.938;8.488;2023-11-21T13:45:02;4.50;;;3.80;;
4391;SDS011;2210;51.938;8.488;2023-11-21T13:49:06;5.20;;;3.80;;
4391;SDS011;2210;51.938;8.488;2023-11-21T13:53:13;5.30;;;3.67;;
4391;SDS011;2210;51.938;8.488;2023-11-21T13:57:22;3.43;;;3.10;;
4391;SDS011;2210;51.938;8.488;2023-11-21T14:01:31;3.63;;;3.30;;
4391;SDS011;2210;51.938;8.488;2023-11-21T14:05:34;3.47;;;3.13;;
4391;SDS011;2210;51.938;8.488;2023-11-21T14:09:38;3.47;;;3.13;;
4391;SDS011;2210;51.938;8.488;2023-11-21T14:13:43;3.30;;;3.00;;
4391;SDS011;2210;51.938;8.488;2023-11-21T14:17:48;3.40;;;3.10;;
4391;SDS011;2210;51.938;8.488;2023-11-21T14:21:49;4.77;;;3.13;;
4391;SDS011;2210;51.938;8.488;2023-11-21T14:25:49;4.53;;;3.40;;
4391;SDS011;2210;51.938;8.488;2023-11-21T14:29:50;4.97;;;3.67;;
4391;SDS011;2210;51.938;8.488;2023-11-21T14:33:52;3.80;;;3.40;;
4391;SDS011;2210;51.938;8.488;2023-11-21T14:37:53;3.57;;;3.20;;
4391;SDS011;2210;51.938;8.488;2023-11-21T14:41:53;3.77;;;3.40;;
4391;SDS011;2210;51.938;8.488;2023-11-21T14:45:56;4.10;;;3.40;;
4391;SDS011;2210;51.938;8.488;2023-11-21T14:49:59;3.80;;;3.33;;
4391;SDS011;2210;51.938;8.488;2023-11-21T14:54:06;5.33;;;3.40;;
4391;SDS011;2210;51.938;8.488;2023-11-21T14:58:22;5.33;;;3.93;;
4391;SDS011;2210;51.938;8.488;2023-11-21T15:02:28;3.03;;;2.73;;
4391;SDS011;2210;51.938;8.488;2023-11-21T15:07:00;4.33;;;3.33;;
4391;SDS011;2210;51.938;8.488;2023-11-21T15:11:01;3.70;;;3.40;;
4391;SDS011;2210;51.938;8.488;2023-11-21T15:15:07;3.20;;;2.93;;
4391;SDS011;2210;51.938;8.488;2023-11-21T15:19:10;5.60;;;3.73;;
4391;SDS011;2210;51.938;8.488;2023-11-21T15:23:15;4.80;;;3.23;;
4391;SDS011;2210;51.938;8.488;2023-11-21T15:27:23;3.67;;;2.80;;
4391;SDS011;2210;51.938;8.488;2023-11-21T15:31:27;3.53;;;2.90;;
4391;SDS011;2210;51.938;8.488;2023-11-21T15:35:31;4.13;;;3.73;;
4391;SDS011;2210;51.938;8.488;2023-11-21T15:39:32;4.40;;;3.00;;
4391;SDS011;2210;51.938;8.488;2023-11-21T15:43:36;3.10;;;2.80;;
4391;SDS011;2210;51.938;8.488;2023-11-21T15:47:36;3.03;;;2.73;;
4391;SDS011;2210;51.938;8.488;2023-11-21T15:51:47;6.53;;;2.70;;
4391;SDS011;2210;51.938;8.488;2023-11-21T15:55:55;3.67;;;3.33;;
4391;SDS011;2210;51.938;8.488;2023-11-21T15:59:55;3.77;;;3.47;;
4391;SDS011;2210;51.938;8.488;2023-11-21T16:03:56;3.27;;;2.97;;
4391;SDS011;2210;51.938;8.488;2023-11-21T16:07:56;4.07;;;3.50;;
4391;SDS011;2210;51.938;8.488;2023-11-21T16:11:57;5.07;;;2.90;;
4391;SDS011;2210;51.938;8.488;2023-11-21T16:16:01;8.90;;;3.60;;
4391;SDS011;2210;51.938;8.488;2023-11-21T16:20:05;3.37;;;3.07;;
4391;SDS011;2210;51.938;8.488;2023-11-21T16:24:08;3.63;;;3.20;;
4391;SDS011;2210;51.938;8.488;2023-11-21T16:28:09;5.03;;;4.03;;
4391;SDS011;2210;51.938;8.488;2023-11-21T16:32:12;4.57;;;3.90;;
4391;SDS011;2210;51.938;8.488;2023-11-21T16:36:15;4.10;;;3.70;;
4391;SDS011;2210;51.938;8.488;2023-11-21T16:40:20;3.03;;;2.77;;
4391;SDS011;2210;51.938;8.488;2023-11-21T16:44:20;3.87;;;3.30;;
4391;SDS011;2210;51.938;8.488;2023-11-21T16:48:27;5.33;;;3.77;;
4391;SDS011;2210;51.938;8.488;2023-11-21T16:52:30;4.13;;;3.73;;
4391;SDS011;2210;51.938;8.488;2023-11-21T16:56:31;5.77;;;3.73;;
4391;SDS011;2210;51.938;8.488;2023-11-21T17:00:31;3.80;;;3.50;;
4391;SDS011;2210;51.938;8.488;2023-11-21T17:04:32;5.33;;;4.10;;
4391;SDS011;2210;51.938;8.488;2023-11-21T17:08:34;6.07;;;3.90;;
4391;SDS011;2210;51.938;8.488;2023-11-21T17:12:34;4.03;;;3.27;;
4391;SDS011;2210;51.938;8.488;2023-11-21T17:16:35;4.00;;;2.97;;
4391;SDS011;2210;51.938;8.488;2023-11-21T17:20:35;5.33;;;3.50;;
4391;SDS011;2210;51.938;8.488;2023-11-21T17:24:36;4.17;;;3.70;;
4391;SDS011;2210;51.938;8.488;2023-11-21T17:28:36;3.77;;;3.47;;
4391;SDS011;2210;51.938;8.488;2023-11-21T17:32:37;3.83;;;3.53;;
4391;SDS011;2210;51.938;8.488;2023-11-21T17:36:39;3.33;;;2.87;;
4391;SDS011;2210;51.938;8.488;2023-11-21T17:40:40;5.93;;;3.53;;
4391;SDS011;2210;51.938;8.488;2023-11-21T17:44:41;4.70;;;3.63;;
4391;SDS011;2210;51.938;8.488;2023-11-21T17:48:41;3.93;;;3.40;;
4391;SDS011;2210;51.938;8.488;2023-11-21T17:52:44;5.85;;;3.85;;
4391;SDS011;2210;51.938;8.488;2023-11-21T17:56:46;3.80;;;3.30;;
4391;SDS011;2210;51.938;8.488;2023-11-21T18:00:47;2.93;;;2.70;;
4391;SDS011;2210;51.938;8.488;2023-11-21T18:04:47;4.60;;;3.53;;
4391;SDS011;2210;51.938;8.488;2023-11-21T18:08:48;3.93;;;3.50;;
4391;SDS011;2210;51.938;8.488;2023-11-21T18:12:48;3.60;;;3.30;;
4391;SDS011;2210;51.938;8.488;2023-11-21T18:16:52;3.77;;;3.10;;
4391;SDS011;2210;51.938;8.488;2023-11-21T18:20:52;4.60;;;3.40;;
4391;SDS011;2210;51.938;8.488;2023-11-21T18:24:52;5.87;;;4.70;;
4391;SDS011;2210;51.938;8.488;2023-11-21T18:28:53;4.23;;;3.53;;
4391;SDS011;2210;51.938;8.488;2023-11-21T18:32:53;5.37;;;4.20;;
4391;SDS011;2210;51.938;8.488;2023-11-21T18:36:53;3.57;;;3.27;;
4391;SDS011;2210;51.938;8.488;2023-11-21T18:40:54;3.00;;;2.80;;
4391;SDS011;2210;51.938;8.488;2023-11-21T18:44:54;3.90;;;3.20;;
4391;SDS011;2210;51.938;8.488;2023-11-21T18:48:54;4.90;;;3.73;;
4391;SDS011;2210;51.938;8.488;2023-11-21T18:52:54;5.00;;;3.20;;
4391;SDS011;2210;51.938;8.488;2023-11-21T18:57:01;4.40;;;3.40;;
4391;SDS011;2210;51.938;8.488;2023-11-21T19:01:04;3.47;;;3.17;;
4391;SDS011;2210;51.938;8.488;2023-11-21T19:05:04;3.57;;;2.93;;
4391;SDS011;2210;51.938;8.488;2023-11-21T19:09:08;5.10;;;3.40;;
4391;SDS011;2210;51.938;8.488;2023-11-21T19:13:15;7.10;;;3.43;;
4391;SDS011;2210;51.938;8.488;2023-11-21T19:17:20;5.33;;;2.97;;
4391;SDS011;2210;51.938;8.488;2023-11-21T19:21:28;6.50;;;4.03;;
4391;SDS011;2210;51.938;8.488;2023-11-21T19:25:31;3.63;;;3.33;;
4391;SDS011;2210;51.938;8.488;2023-11-21T19:29:33;6.87;;;3.30;;
4391;SDS011;2210;51.938;8.488;2023-11-21T19:33:37;7.20;;;2.63;;
4391;SDS011;2210;51.938;8.488;2023-11-21T19:37:38;2.87;;;2.40;;
4391;SDS011;2210;51.938;8.488;2023-11-21T19:41:39;3.00;;;2.70;;
4391;SDS011;2210;51.938;8.488;2023-11-21T19:45:44;3.67;;;3.37;;
4391;SDS011;2210;51.938;8.488;2023-11-21T19:49:45;2.77;;;2.57;;
4391;SDS011;2210;51.938;8.488;2023-11-21T19:53:45;3.10;;;2.80;;
4391;SDS011;2210;51.938;8.488;2023-11-21T19:57:47;3.17;;;2.97;;
4391;SDS011;2210;51.938;8.488;2023-11-21T20:01:48;3.03;;;2.73;;
4391;SDS011;2210;51.938;8.488;2023-11-21T20:05:50;2.83;;;2.20;;
4391;SDS011;2210;51.938;8.488;2023-11-21T20:09:53;6.10;;;2.30;;
4391;SDS011;2210;51.938;8.488;2023-11-21T20:13:54;3.40;;;3.10;;
4391;SDS011;2210;51.938;8.488;2023-11-21T20:17:56;3.57;;;3.20;;
4391;SDS011;2210;51.938;8.488;2023-11-21T20:21:56;3.77;;;3.47;;
4391;SDS011;2210;51.938;8.488;2023-11-21T20:25:57;3.17;;;2.87;;
4391;SDS011;2210;51.938;8.488;2023-11-21T20:30:01;2.70;;;2.50;;
4391;SDS011;2210;51.938;8.488;2023-11-21T20:34:03;2.63;;;2.40;;
4391;SDS011;2210;51.938;8.488;2023-11-21T20:38:04;3.00;;;2.70;;
4391;SDS011;2210;51.938;8.488;2023-11-21T20:42:11;3.20;;;2.70;;
4391;SDS011;2210;51.938;8.488;2023-11-21T20:46:11;3.60;;;2.60;;
4391;SDS011;2210;51.938;8.488;2023-11-21T20:50:12;3.60;;;3.30;;
4391;SDS011;2210;51.938;8.488;2023-11-21T20:54:12;4.23;;;2.97;;
4391;SDS011;2210;51.938;8.488;2023-11-21T20:58:13;3.03;;;2.73;;
4391;SDS011;2210;51.938;8.488;2023-11-21T21:02:16;4.40;;;3.30;;
4391;SDS011;2210;51.938;8.488;2023-11-21T21:06:17;3.33;;;2.93;;
4391;SDS011;2210;51.938;8.488;2023-11-21T21:10:19;2.70;;;2.50;;
4391;SDS011;2210;51.938;8.488;2023-11-21T21:14:20;3.20;;;2.87;;
4391;SDS011;2210;51.938;8.488;2023-11-21T21:18:26;3.20;;;2.80;;
4391;SDS011;2210;51.938;8.488;2023-11-21T21:22:33;5.33;;;2.57;;
4391;SDS011;2210;51.938;8.488;2023-11-21T21:26:33;3.13;;;2.60;;
4391;SDS011;2210;51.938;8.488;2023-11-21T21:30:34;2.97;;;2.67;;
4391;SDS011;2210;51.938;8.488;2023-11-21T21:34:38;3.33;;;3.03;;
4391;SDS011;2210;51.938;8.488;2023-11-21T21:38:39;3.20;;;2.83;;
4391;SDS011;2210;51.938;8.488;2023-11-21T21:42:40;3.87;;;2.50;;
4391;SDS011;2210;51.938;8.488;2023-11-21T21:46:40;2.83;;;2.63;;
4391;SDS011;2210;51.938;8.488;2023-11-21T21:50:43;3.40;;;3.10;;
4391;SDS011;2210;51.938;8.488;2023-11-21T21:54:43;2.77;;;2.50;;
4391;SDS011;2210;51.938;8.488;2023-11-21T21:58:53;2.10;;;2.00;;
4391;SDS011;2210;51.938;8.488;2023-11-21T22:02:55;2.10;;;1.90;;
4391;SDS011;2210;51.938;8.488;2023-11-21T22:06:55;2.93;;;2.40;;
4391;SDS011;2210;51.938;8.488;2023-11-21T22:10:56;2.30;;;2.10;;
4391;SDS011;2210;51.938;8.488;2023-11-21T22:14:57;2.47;;;2.27;;
4391;SDS011;2210;51.938;8.488;2023-11-21T22:18:57;3.47;;;2.43;;
4391;SDS011;2210;51.938;8.488;2023-11-21T22:22:58;4.30;;;3.03;;
4391;SDS011;2210;51.938;8.488;2023-11-21T22:31:09;2.97;;;2.70;;
4391;SDS011;2210;51.938;8.488;2023-11-21T22:35:09;3.60;;;2.77;;
4391;SDS011;2210;51.938;8.488;2023-11-21T22:39:10;5.57;;;2.70;;
4391;SDS011;2210;51.938;8.488;2023-11-21T22:43:13;2.57;;;2.37;;
4391;SDS011;2210;51.938;8.488;2023-11-21T22:47:22;2.53;;;2.33;;
4391;SDS011;2210;51.938;8.488;2023-11-21T22:51:26;2.80;;;2.60;;
4391;SDS011;2210;51.938;8.488;2023-11-21T22:55:26;2.50;;;2.30;;
4391;SDS011;2210;51.938;8.488;2023-11-21T22:59:26;4.77;;;3.33;;
4391;SDS011;2210;51.938;8.488;2023-11-21T23:03:32;2.87;;;2.67;;
4391;SDS011;2210;51.938;8.488;2023-11-21T23:07:33;2.93;;;2.70;;
4391;SDS011;2210;51.938;8.488;2023-11-21T23:11:33;2.87;;;2.40;;
4391;SDS011;2210;51.938;8.488;2023-11-21T23:15:39;2.70;;;2.50;;
4391;SDS011;2210;51.938;8.488;2023-11-21T23:19:42;2.00;;;1.90;;
4391;SDS011;2210;51.938;8.488;2023-11-21T23:23:43;2.77;;;2.40;;
4391;SDS011;2210;51.938;8.488;2023-11-21T23:27:43;1.80;;;1.67;;
4391;SDS011;2210;51.938;8.488;2023-11-21T23:31:46;6.13;;;2.10;;
4391;SDS011;2210;51.938;8.488;2023-11-21T23:35:47;2.87;;;2.50;;
4391;SDS011;2210;51.938;8.488;2023-11-21T23:39:47;2.03;;;1.80;;
4391;SDS011;2210;51.938;8.488;2023-11-21T23:44:03;1.90;;;1.80;;
4391;SDS011;2210;51.938;8.488;2023-11-21T23:48:04;2.67;;;1.73;;
4391;SDS011;2210;51.938;8.488;2023-11-21T23:52:07;1.97;;;1.87;;
4391;SDS011;2210;51.938;8.488;2023-11-21T23:56:13;2.87;;;2.17;;
